Time;durP1;ratioP1;P1;durP2;ratioP2;P2;SDS_P1;SDS_P2;PMS_P1;PMS_P2;Temp;Humidity;BMP_temperature;BMP_pressure;BME280_temperature;BME280_humidity;BME280_pressure;Samples;Min_cycle;Max_cycle;Signal;HPM_P1;HPM_P2
2021/09/14 00:00:15;;;;;;;15.20;11.20;;;;;;;16.70;74.93;98925.42;232926;1204;22511;-72
2021/09/14 00:05:18;;;;;;;16.10;11.00;;;;;;;16.71;74.96;98921.41;233126;1204;22463;-73
2021/09/14 00:10:26;;;;;;;17.20;10.30;;;;;;;16.71;75.06;98920.14;232490;1206;24145;-73
2021/09/14 00:15:46;;;;;;;14.70;10.70;;;;;;;16.71;74.94;98920.23;232409;1206;25187;-71
2021/09/14 00:20:50;;;;;;;17.10;10.50;;;;;;;16.73;75.02;98916.48;232606;1205;24031;-73
2021/09/14 00:25:55;;;;;;;15.80;11.30;;;;;;;16.71;74.81;98916.67;232803;1204;25213;-73
2021/09/14 00:31:00;;;;;;;16.00;10.20;;;;;;;16.67;74.86;98920.60;232494;1206;22577;-72
2021/09/14 00:36:04;;;;;;;16.70;10.90;;;;;;;16.66;74.86;98921.19;232834;1204;22454;-73
2021/09/14 00:41:08;;;;;;;14.60;10.60;;;;;;;16.62;74.89;98919.96;233161;1204;22626;-72
2021/09/14 00:46:11;;;;;;;16.50;11.50;;;;;;;16.56;75.14;98920.56;233056;1205;25405;-72
2021/09/14 00:51:14;;;;;;;17.60;11.40;;;;;;;16.54;75.08;98920.34;232931;1204;22511;-73
2021/09/14 00:56:18;;;;;;;17.70;12.50;;;;;;;16.57;75.13;98919.38;233260;1204;22690;-73
2021/09/14 01:01:20;;;;;;;15.50;11.30;;;;;;;16.60;75.04;98917.54;232922;1204;24221;-72
2021/09/14 01:06:24;;;;;;;14.90;11.10;;;;;;;16.60;75.09;98915.16;232749;1205;24165;-72
2021/09/14 01:11:28;;;;;;;18.80;12.00;;;;;;;16.58;75.13;98914.38;233041;1204;24228;-71
2021/09/14 01:16:34;;;;;;;15.50;12.20;;;;;;;16.57;75.21;98910.50;232728;1206;22451;-74
2021/09/14 01:21:39;;;;;;;17.70;13.00;;;;;;;16.61;75.23;98912.97;232978;1204;24196;-74
2021/09/14 01:26:42;;;;;;;17.40;12.80;;;;;;;16.61;75.09;98910.95;232749;1197;24065;-72
2021/09/14 01:31:47;;;;;;;17.20;12.20;;;;;;;16.58;74.96;98904.83;232846;1204;22833;-73
2021/09/14 01:37:03;;;;;;;13.80;10.80;;;;;;;16.55;74.97;98903.91;232688;1200;25181;-74
2021/09/14 01:42:24;;;;;;;15.70;11.60;;;;;;;16.45;75.03;98906.27;233132;1204;22449;-71
2021/09/14 01:47:28;;;;;;;18.40;12.10;;;;;;;16.39;75.30;98911.20;233088;1204;24013;-73
2021/09/14 01:52:32;;;;;;;16.20;10.20;;;;;;;16.19;75.34;98914.89;232818;1205;22468;-74
2021/09/14 01:57:39;;;;;;;12.90;9.10;;;;;;;15.97;75.83;98921.45;232890;1206;22465;-71
2021/09/14 02:24:07;;;;;;;16.10;10.30;;;;;;;15.40;77.67;98919.09;232674;1205;24140;-73
2021/09/14 03:01:18;;;;;;;18.30;12.30;;;;;;;14.61;78.02;98931.64;232610;1205;22779;-72
2021/09/14 03:06:21;;;;;;;16.10;12.00;;;;;;;14.47;78.16;98930.27;232659;1204;24116;-73
2021/09/14 03:11:31;;;;;;;18.70;12.70;;;;;;;14.44;78.50;98930.13;232682;1205;24218;-71
2021/09/14 03:16:54;;;;;;;17.60;12.30;;;;;;;14.43;78.79;98927.52;232498;1207;24668;-72
2021/09/14 03:21:57;;;;;;;16.10;11.00;;;;;;;14.40;78.72;98925.17;232577;1205;22458;-73
2021/09/14 03:27:01;;;;;;;12.40;9.20;;;;;;;14.26;78.35;98917.45;232724;1204;22631;-72
2021/09/14 03:32:04;;;;;;;13.30;8.60;;;;;;;14.13;78.56;98911.80;232684;1204;22508;-73
2021/09/14 03:37:06;;;;;;;11.50;9.90;;;;;;;14.07;79.05;98919.45;232756;1204;24092;-72
2021/09/14 03:42:12;;;;;;;15.40;11.10;;;;;;;14.11;79.48;98915.79;232615;1205;25457;-72
2021/09/14 03:47:15;;;;;;;15.60;11.40;;;;;;;14.08;79.59;98916.34;232729;1205;25318;-71
2021/09/14 03:52:18;;;;;;;14.50;10.10;;;;;;;14.03;79.72;98919.64;232696;1207;24585;-73
2021/09/14 03:57:30;;;;;;;16.20;11.70;;;;;;;14.04;80.07;98918.69;232692;1205;22839;-73
2021/09/14 04:02:49;;;;;;;14.20;10.90;;;;;;;14.07;80.20;98914.81;232537;1205;24051;-74
2021/09/14 04:13:15;;;;;;;13.90;10.40;;;;;;;13.88;79.97;98910.90;232723;1204;24154;-72
2021/09/14 04:18:21;;;;;;;12.80;11.00;;;;;;;13.85;80.29;98919.10;232917;1204;24106;-73
2021/09/14 04:23:26;;;;;;;18.10;10.60;;;;;;;13.77;80.43;98919.02;232610;1206;22399;-74
2021/09/14 04:28:31;;;;;;;13.60;9.60;;;;;;;13.80;80.86;98923.86;232621;1205;22910;-74
2021/09/14 04:33:34;;;;;;;14.40;11.00;;;;;;;13.83;80.90;98927.34;232618;1204;25250;-73
2021/09/14 04:38:41;;;;;;;16.70;10.80;;;;;;;13.74;80.45;98935.95;232554;1206;22463;-73
2021/09/14 04:43:46;;;;;;;17.60;11.10;;;;;;;13.65;80.73;98940.38;232639;1205;22507;-73
2021/09/14 04:48:49;;;;;;;15.90;10.80;;;;;;;13.63;81.03;98939.45;232697;1204;24078;-72
2021/09/14 04:53:51;;;;;;;15.40;11.10;;;;;;;13.72;81.76;98938.37;232677;1205;25294;-72
2021/09/14 04:58:54;;;;;;;23.90;12.90;;;;;;;13.88;82.05;98933.05;232745;1205;24057;-71
2021/09/14 05:03:57;;;;;;;18.10;12.70;;;;;;;13.99;81.84;98936.29;232836;1205;24148;-73
2021/09/14 05:09:03;;;;;;;18.40;11.20;;;;;;;14.02;81.81;98940.13;233065;1205;24023;-71
2021/09/14 05:14:19;;;;;;;15.20;10.90;;;;;;;14.11;81.71;98935.82;232705;1198;24079;-72
2021/09/14 05:19:38;;;;;;;18.20;13.70;;;;;;;14.29;82.17;98932.84;232584;1204;24080;-73
2021/09/14 05:24:41;;;;;;;17.70;12.00;;;;;;;14.48;82.31;98942.05;232714;1204;24120;-73
2021/09/14 05:29:43;;;;;;;20.30;13.30;;;;;;;14.69;82.35;98938.84;232668;1204;24100;-73
2021/09/14 05:34:47;;;;;;;17.10;12.60;;;;;;;14.89;82.06;98943.83;232852;1204;24034;-71
2021/09/14 05:39:51;;;;;;;17.50;13.30;;;;;;;14.96;81.35;98946.83;232758;1205;24990;-71
2021/09/14 05:44:55;;;;;;;23.00;12.30;;;;;;;14.97;80.92;98946.38;233218;1200;25330;-73
2021/09/14 05:50:01;;;;;;;16.90;11.00;;;;;;;15.01;80.88;98948.21;233741;1204;22479;-72
2021/09/14 05:55:06;;;;;;;19.30;11.70;;;;;;;15.08;80.88;98947.33;233347;1204;24069;-75
2021/09/14 06:00:11;;;;;;;16.90;12.00;;;;;;;15.16;80.84;98948.58;233855;1204;22462;-72
2021/09/14 06:05:29;;;;;;;20.80;11.50;;;;;;;15.20;80.69;98947.42;233667;1204;22494;-74
2021/09/14 06:10:47;;;;;;;15.00;10.40;;;;;;;15.29;80.58;98948.35;234637;1204;24143;-73
2021/09/14 06:15:58;;;;;;;18.00;13.20;;;;;;;15.43;80.71;98948.83;233662;1204;22518;-76
2021/09/14 06:21:15;;;;;;;19.50;13.10;;;;;;;15.57;80.79;98947.63;233056;1205;22458;-74
2021/09/14 06:26:50;;;;;;;19.00;14.30;;;;;;;15.76;80.86;98950.02;233349;1205;22480;-75
2021/09/14 06:32:10;;;;;;;17.60;13.20;;;;;;;15.97;80.56;98951.99;233218;1204;25497;-75
2021/09/14 06:37:27;;;;;;;19.80;14.30;;;;;;;16.16;80.29;98956.40;233086;1204;22622;-74
2021/09/14 06:42:30;;;;;;;24.30;18.60;;;;;;;16.39;80.34;98957.33;233149;1197;24202;-74
2021/09/14 06:47:34;;;;;;;22.00;15.60;;;;;;;16.58;80.01;98955.73;233393;1198;22759;-74
2021/09/14 06:52:39;;;;;;;21.30;15.70;;;;;;;16.78;79.60;98959.38;233260;1204;24075;-75
2021/09/14 06:57:42;;;;;;;20.60;15.70;;;;;;;16.97;79.21;98959.38;233257;1207;22583;-75
2021/09/14 07:02:44;;;;;;;19.60;16.30;;;;;;;17.18;78.98;98960.13;233249;1198;24051;-75
2021/09/14 07:07:47;;;;;;;18.80;15.10;;;;;;;17.36;78.70;98956.77;233510;1204;24075;-74
2021/09/14 07:12:50;;;;;;;20.40;15.70;;;;;;;17.60;78.49;98956.29;233364;1205;25223;-74
2021/09/14 07:17:56;;;;;;;20.70;15.60;;;;;;;17.90;78.26;98954.45;233257;1205;22474;-75
2021/09/14 07:22:58;;;;;;;20.30;15.80;;;;;;;18.16;77.60;98958.53;233191;1207;25289;-76
2021/09/14 07:28:01;;;;;;;19.30;14.50;;;;;;;18.40;76.98;98963.23;233338;1203;24058;-74
2021/09/14 07:33:04;;;;;;;19.80;15.60;;;;;;;18.59;76.01;98967.89;233403;1205;22456;-75
2021/09/14 07:38:06;;;;;;;22.80;13.60;;;;;;;18.78;75.52;98969.89;233131;1204;22451;-74
2021/09/14 07:43:09;;;;;;;16.10;12.30;;;;;;;18.94;74.90;98966.95;233343;1204;22493;-75
2021/09/14 07:48:11;;;;;;;16.80;12.80;;;;;;;19.13;74.20;98969.70;233096;1205;24079;-75
2021/09/14 07:53:14;;;;;;;16.40;13.10;;;;;;;19.29;73.41;98971.73;233144;1206;22539;-75
2021/09/14 07:58:16;;;;;;;16.40;12.90;;;;;;;19.50;73.09;98972.90;233551;1205;22507;-76
2021/09/14 08:03:19;;;;;;;15.40;11.30;;;;;;;19.78;72.55;98976.90;233353;1205;22588;-77
2021/09/14 08:08:22;;;;;;;12.10;10.80;;;;;;;20.06;71.99;98981.89;233283;1204;24630;-75
2021/09/14 08:13:26;;;;;;;13.70;11.00;;;;;;;20.46;71.34;98984.50;233335;1199;25334;-75
2021/09/14 08:18:30;;;;;;;14.20;11.10;;;;;;;20.92;70.11;98986.91;233670;1204;24002;-75
2021/09/14 08:23:34;;;;;;;14.70;12.00;;;;;;;21.15;68.49;98984.55;233597;1205;23998;-75
2021/09/14 08:28:37;;;;;;;14.50;11.30;;;;;;;21.39;67.70;98990.33;233165;1202;22478;-76
2021/09/14 08:33:51;;;;;;;15.80;11.60;;;;;;;21.74;66.78;98984.94;233490;1205;22466;-75
2021/09/14 08:38:54;;;;;;;16.30;12.60;;;;;;;22.05;66.05;98986.16;233546;1205;22598;-76
2021/09/14 08:44:06;;;;;;;13.60;12.40;;;;;;;22.30;65.25;98984.75;233699;1204;22601;-76
2021/09/14 08:49:14;;;;;;;15.00;12.30;;;;;;;22.27;63.22;98991.89;233358;1205;22488;-74
2021/09/14 08:54:17;;;;;;;10.30;8.50;;;;;;;22.17;63.28;98985.45;233114;1203;24694;-75
2021/09/14 08:59:29;;;;;;;10.50;9.10;;;;;;;22.11;62.35;98984.96;233240;1205;22645;-76
2021/09/14 09:04:34;;;;;;;12.00;10.90;;;;;;;22.07;62.63;98987.99;233254;1205;25832;-75
2021/09/14 09:09:37;;;;;;;15.50;13.10;;;;;;;22.16;62.35;98990.50;233220;1205;22472;-76
2021/09/14 09:14:42;;;;;;;14.80;13.10;;;;;;;22.21;61.50;98990.05;233077;1209;23003;-75
2021/09/14 09:19:58;;;;;;;13.50;12.00;;;;;;;22.47;61.49;98991.02;233327;1205;24070;-76
2021/09/14 09:25:01;;;;;;;10.80;8.70;;;;;;;22.62;60.02;98990.19;233483;1205;22613;-75
2021/09/14 09:30:07;;;;;;;11.90;9.40;;;;;;;23.01;59.79;98988.16;233785;1205;22478;-75
2021/09/14 09:35:11;;;;;;;11.10;9.40;;;;;;;23.42;59.20;98991.29;233934;1204;25198;-75
2021/09/14 09:40:32;;;;;;;8.20;7.40;;;;;;;23.73;57.97;98991.86;233118;1205;22475;-75
2021/09/14 09:45:48;;;;;;;11.90;10.10;;;;;;;23.90;56.77;98989.27;233076;1205;24694;-74
2021/09/14 09:50:52;;;;;;;11.00;9.70;;;;;;;23.70;55.40;98989.38;233108;1205;25098;-74
2021/09/14 09:55:56;;;;;;;10.60;9.60;;;;;;;23.53;55.84;98987.37;233464;1205;22470;-75
2021/09/14 10:01:12;;;;;;;11.40;9.80;;;;;;;23.65;56.13;98989.16;233412;1205;25287;-75
2021/09/14 10:06:16;;;;;;;11.20;10.00;;;;;;;23.81;55.77;98989.75;233720;1205;22499;-76
2021/09/14 10:11:28;;;;;;;12.40;10.40;;;;;;;23.79;55.14;98982.31;233836;1208;24657;-75
2021/09/14 10:16:35;;;;;;;11.10;10.00;;;;;;;23.62;54.80;98973.83;233316;1209;22488;-75
2021/09/14 10:21:46;;;;;;;;;;;;;;;23.31;54.75;98973.65;233703;1205;22543;-74
2021/09/14 10:26:49;;;;;;;13.10;11.10;;;;;;;23.18;55.14;98970.80;233985;1212;25212;-74
2021/09/14 10:32:03;;;;;;;15.10;12.70;;;;;;;23.24;55.15;98972.84;233991;1204;22516;-73
2021/09/14 10:37:13;;;;;;;13.50;12.10;;;;;;;23.42;55.32;98972.92;233688;1206;22486;-75
2021/09/14 10:42:36;;;;;;;14.00;12.00;;;;;;;23.66;55.15;98972.45;233665;1209;22922;-74
2021/09/14 10:47:41;;;;;;;11.60;10.40;;;;;;;23.82;53.99;98975.77;235823;1203;25200;-74
2021/09/14 10:52:55;;;;;;;9.60;8.60;;;;;;;23.97;53.50;98971.77;233080;1205;22477;-75
2021/09/14 10:58:18;;;;;;;9.20;8.30;;;;;;;24.00;52.04;98970.70;233104;1203;22482;-76
2021/09/14 11:03:21;;;;;;;8.40;7.60;;;;;;;23.79;51.23;98972.16;233368;1205;22927;-74
2021/09/14 11:08:38;;;;;;;7.80;7.00;;;;;;;23.63;51.28;98967.98;233462;1208;22577;-74
2021/09/14 11:13:41;;;;;;;7.60;6.90;;;;;;;23.67;50.60;98963.11;234908;1204;26312;-75
2021/09/14 11:18:45;;;;;;;7.30;6.60;;;;;;;23.74;50.20;98962.02;233229;1205;23250;-74
2021/09/14 11:23:49;;;;;;;6.40;5.90;;;;;;;23.81;50.26;98959.52;235381;1208;24051;-74
2021/09/14 11:29:00;;;;;;;7.70;7.00;;;;;;;23.89;49.86;98960.19;233298;1205;24236;-75
2021/09/14 11:34:05;;;;;;;9.80;8.90;;;;;;;23.96;49.42;98959.80;233590;1209;25611;-76
2021/09/14 11:39:09;;;;;;;7.50;6.80;;;;;;;24.10;49.86;98961.98;233351;1205;22463;-76
2021/09/14 11:44:25;;;;;;;13.60;12.10;;;;;;;24.39;49.40;98960.08;233545;1205;22568;-73
2021/09/14 11:49:27;;;;;;;13.30;11.90;;;;;;;24.40;49.79;98958.60;233396;1203;25048;-75
2021/09/14 11:54:36;;;;;;;12.80;10.90;;;;;;;24.25;49.88;98956.50;233684;1203;22484;-82
2021/09/14 11:59:38;;;;;;;14.80;10.80;;;;;;;23.99;49.95;98954.98;233511;1205;23267;-79
2021/09/14 12:04:41;;;;;;;16.10;10.70;;;;;;;23.87;50.48;98954.68;233485;1205;24135;-75
2021/09/14 12:09:45;;;;;;;10.20;9.20;;;;;;;23.79;50.55;98948.09;233132;1205;24074;-73
2021/09/14 12:14:55;;;;;;;10.80;9.70;;;;;;;23.87;50.65;98944.52;233384;1205;24143;-76
2021/09/14 12:19:58;;;;;;;12.60;10.50;;;;;;;23.84;50.26;98947.52;233975;1206;22485;-75
2021/09/14 12:25:01;;;;;;;6.90;6.30;;;;;;;23.74;50.36;98948.73;233583;1204;24281;-72
2021/09/14 12:30:05;;;;;;;13.00;10.10;;;;;;;23.73;49.91;98943.17;233130;1202;22483;-73
2021/09/14 12:35:14;;;;;;;11.30;9.60;;;;;;;23.83;50.22;98940.80;232933;1203;25949;-73
2021/09/14 12:40:16;;;;;;;10.10;8.80;;;;;;;23.92;50.19;98935.84;232869;1205;24052;-72
2021/09/14 12:45:20;;;;;;;10.80;9.50;;;;;;;24.01;50.22;98932.65;233226;1205;24899;-72
2021/09/14 12:50:22;;;;;;;10.30;9.00;;;;;;;24.16;49.68;98928.34;232987;1203;24064;-73
2021/09/14 12:55:25;;;;;;;9.80;8.80;;;;;;;24.25;49.35;98932.96;233362;1205;23635;-72
2021/09/14 13:00:29;;;;;;;9.40;7.90;;;;;;;24.17;48.57;98924.05;233508;1209;24194;-70
2021/09/14 13:05:45;;;;;;;8.70;7.70;;;;;;;24.00;48.11;98917.71;232998;1206;24089;-71
2021/09/14 13:10:48;;;;;;;8.50;7.70;;;;;;;23.88;48.23;98913.73;233158;1205;25136;-73
2021/09/14 13:16:10;;;;;;;8.50;7.40;;;;;;;23.80;48.45;98909.11;233140;1207;24073;-72
2021/09/14 13:21:14;;;;;;;9.40;7.90;;;;;;;23.84;48.77;98905.24;233867;1203;22465;-73
2021/09/14 13:26:18;;;;;;;8.30;7.00;;;;;;;23.90;48.37;98906.83;232817;1206;24023;-73
2021/09/14 13:31:22;;;;;;;11.40;10.30;;;;;;;23.89;48.18;98903.45;232898;1207;24077;-71
2021/09/14 13:36:25;;;;;;;13.90;10.30;;;;;;;23.84;48.18;98901.02;232880;1205;22566;-72
2021/09/14 13:41:35;;;;;;;11.00;9.30;;;;;;;23.80;47.95;98893.33;232822;1204;24075;-73
2021/09/14 13:46:38;;;;;;;9.00;8.20;;;;;;;23.86;47.77;98889.33;232904;1205;24004;-73
2021/09/14 13:51:41;;;;;;;8.30;7.50;;;;;;;23.91;47.96;98886.98;233012;1208;22481;-76
2021/09/14 13:56:44;;;;;;;8.70;7.80;;;;;;;24.02;47.97;98884.75;233125;1197;25192;-73
2021/09/14 14:01:48;;;;;;;9.20;7.90;;;;;;;24.10;47.99;98884.19;233998;1205;23806;-73
2021/09/14 14:06:51;;;;;;;10.90;9.80;;;;;;;24.19;48.36;98880.44;234470;1204;24057;-71
2021/09/14 14:11:54;;;;;;;10.50;9.50;;;;;;;24.23;47.73;98876.41;233907;1198;24254;-74
2021/09/14 14:16:59;;;;;;;8.80;7.80;;;;;;;24.23;47.44;98874.85;233170;1205;24055;-73
2021/09/14 14:22:01;;;;;;;11.30;9.40;;;;;;;24.21;47.77;98869.20;232941;1207;24190;-73
2021/09/14 14:27:04;;;;;;;9.60;8.70;;;;;;;24.22;47.98;98863.96;233045;1205;24087;-74
2021/09/14 14:32:07;;;;;;;10.20;9.20;;;;;;;24.22;47.90;98862.95;232785;1205;24064;-74
2021/09/14 14:37:10;;;;;;;9.20;8.30;;;;;;;24.21;47.81;98860.13;232759;1205;25297;-74
2021/09/14 14:42:12;;;;;;;9.50;8.60;;;;;;;24.15;47.40;98857.95;232812;1205;22517;-73
2021/09/14 14:47:15;;;;;;;9.00;8.20;;;;;;;24.08;47.32;98861.73;232983;1207;22667;-72
2021/09/14 14:52:17;;;;;;;11.10;8.80;;;;;;;24.05;47.34;98862.25;232982;1204;25306;-71
2021/09/14 14:57:20;;;;;;;10.30;8.70;;;;;;;23.91;46.66;98850.23;232825;1204;22537;-72
2021/09/14 15:02:23;;;;;;;9.00;8.00;;;;;;;23.74;46.68;98853.95;232425;1200;22455;-73
2021/09/14 15:07:25;;;;;;;8.70;7.00;;;;;;;23.71;47.11;98854.77;232601;1204;24229;-73
2021/09/14 15:12:28;;;;;;;9.40;7.60;;;;;;;23.67;47.10;98860.45;232776;1198;24070;-73
2021/09/14 15:17:33;;;;;;;7.40;6.80;;;;;;;23.63;47.18;98859.30;232772;1204;25287;-74
2021/09/14 15:22:47;;;;;;;9.00;8.10;;;;;;;23.62;47.16;98857.34;232828;1204;22479;-73
2021/09/14 15:27:50;;;;;;;12.60;8.50;;;;;;;23.54;47.38;98856.00;232485;1205;24098;-74
2021/09/14 15:32:54;;;;;;;9.00;8.10;;;;;;;23.48;48.02;98860.07;232815;1208;22463;-73
2021/09/14 15:38:16;;;;;;;8.60;7.70;;;;;;;23.40;48.36;98859.75;232800;1204;24145;-74
2021/09/14 15:43:23;;;;;;;9.30;8.40;;;;;;;23.35;48.77;98863.83;232754;1204;23620;-71
2021/09/14 15:48:31;;;;;;;11.30;9.00;;;;;;;23.28;48.99;98869.14;232762;1204;25179;-73
2021/09/14 15:53:34;;;;;;;10.00;9.00;;;;;;;23.19;48.89;98871.90;232748;1204;22449;-73
2021/09/14 15:58:38;;;;;;;9.40;8.40;;;;;;;23.06;49.16;98866.09;232433;1205;25434;-73
2021/09/14 16:03:54;;;;;;;10.10;8.30;;;;;;;22.92;49.22;98867.38;232635;1206;24071;-70
2021/09/14 16:09:13;;;;;;;11.40;10.20;;;;;;;22.77;49.84;98869.27;232477;1206;24188;-73
2021/09/14 16:14:15;;;;;;;10.50;8.50;;;;;;;22.60;50.34;98867.86;232475;1207;24233;-73
2021/09/14 16:19:18;;;;;;;11.50;8.10;;;;;;;22.41;50.90;98878.40;232917;1204;24070;-74
2021/09/14 16:24:20;;;;;;;8.70;7.80;;;;;;;22.20;51.20;98878.88;232753;1204;24067;-74
2021/09/14 16:29:22;;;;;;;10.60;8.10;;;;;;;21.97;51.85;98875.84;232583;1212;22518;-72
2021/09/14 16:34:25;;;;;;;10.70;7.40;;;;;;;21.75;52.49;98874.41;232710;1210;24065;-73
2021/09/14 16:39:27;;;;;;;9.30;7.60;;;;;;;21.52;53.07;98879.73;232819;1204;24118;-72
2021/09/14 16:44:30;;;;;;;9.00;8.10;;;;;;;21.28;53.63;98878.98;232562;1206;22463;-72
2021/09/14 16:49:33;;;;;;;10.60;7.70;;;;;;;21.02;54.18;98875.63;232601;1206;24068;-73
2021/09/14 16:54:35;;;;;;;11.00;7.90;;;;;;;20.76;54.84;98873.66;232763;1205;24211;-74
2021/09/14 16:59:43;;;;;;;11.60;7.90;;;;;;;20.52;55.29;98880.70;232867;1197;22451;-72
2021/09/14 17:04:45;;;;;;;9.80;8.00;;;;;;;20.28;55.64;98882.30;232711;1206;25201;-73
2021/09/14 17:09:48;;;;;;;10.40;7.80;;;;;;;20.04;56.13;98883.42;232734;1205;24027;-73
2021/09/14 17:14:50;;;;;;;13.50;9.20;;;;;;;19.84;56.68;98882.72;232648;1207;24077;-73
2021/09/14 17:19:53;;;;;;;11.40;10.20;;;;;;;19.65;57.41;98884.05;232581;1206;25403;-74
2021/09/14 17:24:56;;;;;;;13.50;10.20;;;;;;;19.50;58.03;98887.61;232545;1198;22475;-73
2021/09/14 17:29:59;;;;;;;11.60;9.70;;;;;;;19.32;58.38;98893.08;232908;1205;22543;-71
2021/09/14 17:35:02;;;;;;;11.20;10.00;;;;;;;19.14;58.81;98898.08;232742;1205;22804;-73
2021/09/14 17:40:05;;;;;;;12.80;9.60;;;;;;;18.96;59.28;98897.44;232781;1205;22542;-71
2021/09/14 17:45:10;;;;;;;11.50;8.80;;;;;;;18.79;59.71;98899.83;232940;1205;24079;-73
2021/09/14 17:50:12;;;;;;;11.30;10.10;;;;;;;18.63;60.23;98897.32;232782;1200;22449;-74
2021/09/14 17:55:15;;;;;;;15.40;11.40;;;;;;;18.49;60.88;98887.59;232489;1206;22580;-73
2021/09/14 18:00:18;;;;;;;13.30;11.40;;;;;;;18.39;61.34;98888.94;232540;1200;22480;-71
2021/09/14 18:05:20;;;;;;;14.40;12.40;;;;;;;18.24;61.78;98899.94;232612;1200;24620;-73
2021/09/14 18:10:24;;;;;;;15.30;10.20;;;;;;;18.08;62.12;98905.83;232548;1206;22466;-73
2021/09/14 18:15:27;;;;;;;14.20;11.60;;;;;;;17.94;62.67;98903.89;232610;1206;25262;-73
2021/09/14 18:20:30;;;;;;;15.90;12.70;;;;;;;17.84;63.11;98905.20;232623;1198;24081;-73
2021/09/14 18:25:33;;;;;;;18.60;12.30;;;;;;;17.76;63.65;98909.02;232771;1204;25142;-73
2021/09/14 18:30:35;;;;;;;17.20;11.90;;;;;;;17.66;63.95;98912.06;232869;1204;23101;-73
2021/09/14 18:35:38;;;;;;;14.90;12.40;;;;;;;17.55;64.40;98910.45;232651;1206;24103;-73
2021/09/14 18:40:40;;;;;;;17.50;13.60;;;;;;;17.47;64.85;98916.65;232886;1205;26416;-74
2021/09/14 18:45:43;;;;;;;18.30;14.70;;;;;;;17.39;65.36;98916.80;232736;1205;24061;-72
2021/09/14 18:50:46;;;;;;;16.60;12.10;;;;;;;17.32;65.63;98920.64;232668;1205;22844;-73
2021/09/14 18:55:50;;;;;;;16.40;13.20;;;;;;;17.24;66.04;98916.97;232793;1200;22473;-72
2021/09/14 19:00:53;;;;;;;16.70;14.70;;;;;;;17.18;66.46;98919.81;232699;1204;26156;-74
2021/09/14 19:06:01;;;;;;;18.90;15.40;;;;;;;17.07;66.69;98921.29;232624;1206;24063;-70
2021/09/14 19:11:11;;;;;;;18.10;13.30;;;;;;;16.97;67.00;98925.61;232601;1205;24144;-73
2021/09/14 19:16:34;;;;;;;17.30;13.50;;;;;;;16.87;67.44;98927.77;232730;1206;25204;-73
2021/09/14 19:21:38;;;;;;;19.70;15.10;;;;;;;16.82;67.68;98924.06;232886;1204;24070;-74
2021/09/14 19:26:42;;;;;;;19.70;14.50;;;;;;;16.75;67.92;98922.64;232858;1204;25354;-74
2021/09/14 19:31:57;;;;;;;15.90;12.30;;;;;;;16.65;68.01;98919.59;232549;1205;22494;-72
2021/09/14 19:37:16;;;;;;;17.60;12.70;;;;;;;16.54;68.29;98916.02;232565;1205;24060;-74
2021/09/14 19:42:18;;;;;;;20.30;13.80;;;;;;;16.49;68.64;98916.73;232760;1204;22466;-72
2021/09/14 19:47:22;;;;;;;17.30;13.30;;;;;;;16.39;68.80;98918.39;232621;1206;24075;-74
2021/09/14 19:52:25;;;;;;;18.90;13.10;;;;;;;16.29;68.87;98913.05;232612;1206;25274;-73
2021/09/14 19:57:28;;;;;;;18.70;12.60;;;;;;;16.20;69.26;98912.91;232750;1204;24073;-71
2021/09/14 20:02:30;;;;;;;18.10;14.60;;;;;;;16.10;69.54;98909.56;232733;1198;22582;-74
2021/09/14 20:07:33;;;;;;;19.20;15.00;;;;;;;15.96;69.81;98911.50;232975;1198;24633;-73
2021/09/14 20:12:36;;;;;;;18.40;13.60;;;;;;;15.84;70.15;98913.02;232874;1197;24059;-71
2021/09/14 20:17:41;;;;;;;26.80;14.90;;;;;;;15.79;70.53;98911.77;232666;1205;25203;-71
2021/09/14 20:22:43;;;;;;;20.70;16.90;;;;;;;15.75;70.94;98910.04;232469;1205;25292;-73
2021/09/14 20:27:46;;;;;;;21.30;16.30;;;;;;;15.71;71.19;98911.27;232440;1205;22478;-73
2021/09/14 20:32:49;;;;;;;20.20;15.10;;;;;;;15.66;71.54;98912.43;232640;1206;24081;-73
2021/09/14 20:37:51;;;;;;;20.20;14.60;;;;;;;15.60;71.62;98910.88;232616;1205;24337;-74
2021/09/14 20:42:54;;;;;;;22.10;16.40;;;;;;;15.57;71.96;98916.69;232720;1204;22483;-74
2021/09/14 20:47:58;;;;;;;24.10;17.30;;;;;;;15.53;72.23;98914.75;232702;1206;24157;-74
2021/09/14 20:53:01;;;;;;;21.10;15.20;;;;;;;15.50;72.46;98915.57;232859;1204;25298;-74
2021/09/14 20:58:03;;;;;;;18.90;15.20;;;;;;;15.47;72.61;98912.67;232578;1206;24075;-72
2021/09/14 21:03:06;;;;;;;19.60;15.00;;;;;;;15.43;72.67;98913.58;233001;1204;22438;-72
2021/09/14 21:08:12;;;;;;;21.10;17.60;;;;;;;15.37;72.77;98909.32;232814;1204;22454;-73
2021/09/14 21:13:28;;;;;;;24.40;15.80;;;;;;;15.31;73.00;98907.40;232524;1205;22461;-73
2021/09/14 21:18:31;;;;;;;22.10;16.10;;;;;;;15.27;73.12;98905.20;232751;1204;24209;-73
2021/09/14 21:23:33;;;;;;;20.20;15.60;;;;;;;15.22;73.34;98905.81;232823;1204;22449;-73
2021/09/14 21:28:36;;;;;;;20.60;16.40;;;;;;;15.16;73.60;98908.96;232686;1204;22497;-73
2021/09/14 21:33:38;;;;;;;19.50;15.60;;;;;;;15.07;73.64;98909.20;232758;1204;24090;-72
2021/09/14 21:38:41;;;;;;;22.20;14.70;;;;;;;15.00;73.84;98904.79;232699;1204;24117;-71
2021/09/14 21:43:43;;;;;;;20.20;15.50;;;;;;;14.96;74.07;98908.58;232626;1212;24015;-73
2021/09/14 21:48:47;;;;;;;21.60;16.20;;;;;;;14.91;74.33;98907.27;232701;1204;24055;-73
2021/09/14 21:53:49;;;;;;;17.80;15.30;;;;;;;14.84;74.55;98909.22;232623;1206;25232;-72
2021/09/14 21:58:52;;;;;;;19.20;14.20;;;;;;;14.78;74.76;98907.52;232628;1198;24152;-73
2021/09/14 22:03:55;;;;;;;20.30;16.50;;;;;;;14.74;74.98;98908.71;232652;1205;24039;-73
2021/09/14 22:09:03;;;;;;;19.90;15.00;;;;;;;14.68;75.17;98909.05;232630;1199;22454;-73
2021/09/14 22:14:09;;;;;;;17.80;15.50;;;;;;;14.63;75.27;98902.71;232673;1204;22464;-72
2021/09/14 22:19:15;;;;;;;24.80;16.90;;;;;;;14.53;75.45;98905.41;232674;1204;22471;-73
2021/09/14 22:24:17;;;;;;;22.30;15.80;;;;;;;14.43;75.74;98903.16;232794;1198;22447;-71
2021/09/14 22:29:20;;;;;;;17.70;14.70;;;;;;;14.37;75.95;98900.08;232707;1207;22468;-72
2021/09/14 22:34:35;;;;;;;18.10;15.30;;;;;;;14.33;76.11;98902.27;232611;1204;25129;-74
2021/09/14 22:39:58;;;;;;;21.90;17.50;;;;;;;14.30;76.47;98903.91;232794;1200;22587;-72
2021/09/14 22:45:15;;;;;;;20.80;16.50;;;;;;;14.25;76.47;98899.80;232567;1207;25241;-72
2021/09/14 22:50:22;;;;;;;21.80;16.00;;;;;;;14.22;76.57;98896.16;232598;1207;22456;-73
2021/09/14 22:55:25;;;;;;;20.50;17.40;;;;;;;14.19;76.71;98895.21;232542;1204;24164;-73
2021/09/14 23:00:27;;;;;;;24.90;18.50;;;;;;;14.15;76.92;98894.30;232666;1205;22448;-73
2021/09/14 23:05:30;;;;;;;23.70;16.50;;;;;;;14.13;77.07;98894.72;232791;1204;24120;-72
2021/09/14 23:10:33;;;;;;;20.80;15.30;;;;;;;14.08;77.07;98889.28;232612;1205;24822;-71
2021/09/14 23:15:37;;;;;;;23.20;17.10;;;;;;;14.04;77.12;98882.66;232844;1204;24026;-73
2021/09/14 23:20:40;;;;;;;22.50;17.40;;;;;;;13.99;77.25;98875.05;232796;1204;24063;-72
2021/09/14 23:25:43;;;;;;;23.40;18.90;;;;;;;13.93;77.44;98869.36;232620;1198;22383;-72
2021/09/14 23:30:46;;;;;;;24.40;17.00;;;;;;;13.86;77.55;98868.02;232708;1204;24078;-74
2021/09/14 23:35:49;;;;;;;23.50;17.10;;;;;;;13.77;77.60;98864.92;232618;1205;24212;-72
2021/09/14 23:40:52;;;;;;;20.40;16.50;;;;;;;13.68;77.69;98863.27;232709;1211;25216;-74
2021/09/14 23:45:54;;;;;;;25.00;19.70;;;;;;;13.65;78.00;98864.25;232594;1201;24540;-74
2021/09/14 23:50:57;;;;;;;24.80;19.30;;;;;;;13.64;78.25;98867.21;232719;1201;24082;-73
2021/09/14 23:56:01;;;;;;;23.30;17.10;;;;;;;13.62;78.39;98864.58;232641;1205;24624;-71
